sensor_id;sensor_type;location;lat;lon;timestamp;temperature;humidity
28837;DHT22;50669;50.982;11.022;2022-12-15T00:01:24;-4.60;99.90
28837;DHT22;50669;50.982;11.022;2022-12-15T00:04:11;-4.60;99.90
28837;DHT22;50669;50.982;11.022;2022-12-15T00:06:58;-4.50;99.90
28837;DHT22;50669;50.982;11.022;2022-12-15T00:09:42;-4.50;99.90
28837;DHT22;50669;50.982;11.022;2022-12-15T00:12:31;-4.60;99.90
28837;DHT22;50669;50.982;11.022;2022-12-15T00:15:15;-4.60;99.90
28837;DHT22;50669;50.982;11.022;2022-12-15T00:18:06;-4.70;99.90
28837;DHT22;50669;50.982;11.022;2022-12-15T00:20:50;-4.70;99.90
28837;DHT22;50669;50.982;11.022;2022-12-15T00:23:35;-4.80;99.90
28837;DHT22;50669;50.982;11.022;2022-12-15T00:26:19;-4.90;99.90
28837;DHT22;50669;50.982;11.022;2022-12-15T00:29:03;-4.90;99.90
28837;DHT22;50669;50.982;11.022;2022-12-15T00:31:47;-5.00;99.90
28837;DHT22;50669;50.982;11.022;2022-12-15T00:34:31;-5.10;99.90
28837;DHT22;50669;50.982;11.022;2022-12-15T00:37:15;-5.10;99.90
28837;DHT22;50669;50.982;11.022;2022-12-15T00:39:59;-5.10;99.90
28837;DHT22;50669;50.982;11.022;2022-12-15T00:42:29;-5.10;99.90
28837;DHT22;50669;50.982;11.022;2022-12-15T00:44:57;-5.10;99.90
28837;DHT22;50669;50.982;11.022;2022-12-15T00:47:25;-5.20;99.90
28837;DHT22;50669;50.982;11.022;2022-12-15T00:49:55;-5.20;99.90
28837;DHT22;50669;50.982;11.022;2022-12-15T00:52:40;-5.20;99.90
28837;DHT22;50669;50.982;11.022;2022-12-15T00:55:24;-5.30;99.90
28837;DHT22;50669;50.982;11.022;2022-12-15T00:58:08;-5.30;99.90
28837;DHT22;50669;50.982;11.022;2022-12-15T01:00:52;-5.30;99.90
28837;DHT22;50669;50.982;11.022;2022-12-15T01:03:39;-5.30;99.90
28837;DHT22;50669;50.982;11.022;2022-12-15T01:06:23;-5.30;99.90
28837;DHT22;50669;50.982;11.022;2022-12-15T01:09:09;-5.30;99.90
28837;DHT22;50669;50.982;11.022;2022-12-15T01:11:55;-5.30;99.90
28837;DHT22;50669;50.982;11.022;2022-12-15T01:14:39;-5.30;99.90
28837;DHT22;50669;50.982;11.022;2022-12-15T01:17:23;-5.30;99.90
28837;DHT22;50669;50.982;11.022;2022-12-15T01:20:08;-5.30;99.90
28837;DHT22;50669;50.982;11.022;2022-12-15T01:25:10;-5.30;99.90
28837;DHT22;50669;50.982;11.022;2022-12-15T01:27:38;-5.30;99.90
28837;DHT22;50669;50.982;11.022;2022-12-15T01:30:08;-5.30;99.90
28837;DHT22;50669;50.982;11.022;2022-12-15T01:32:34;-5.30;99.90
28837;DHT22;50669;50.982;11.022;2022-12-15T01:35:03;-5.30;99.90
28837;DHT22;50669;50.982;11.022;2022-12-15T01:37:31;-5.20;99.90
28837;DHT22;50669;50.982;11.022;2022-12-15T01:39:57;-5.20;99.90
28837;DHT22;50669;50.982;11.022;2022-12-15T01:42:44;-5.20;99.90
28837;DHT22;50669;50.982;11.022;2022-12-15T01:53:31;-5.00;99.90
28837;DHT22;50669;50.982;11.022;2022-12-15T01:55:58;-4.90;99.90
28837;DHT22;50669;50.982;11.022;2022-12-15T01:58:24;-4.80;99.90
28837;DHT22;50669;50.982;11.022;2022-12-15T02:00:55;-4.70;99.90
28837;DHT22;50669;50.982;11.022;2022-12-15T02:03:22;-4.70;99.90
28837;DHT22;50669;50.982;11.022;2022-12-15T02:05:48;-4.60;99.90
28837;DHT22;50669;50.982;11.022;2022-12-15T02:08:13;-4.70;99.90
28837;DHT22;50669;50.982;11.022;2022-12-15T02:10:56;-4.60;99.90
28837;DHT22;50669;50.982;11.022;2022-12-15T02:14:15;-4.60;99.90
28837;DHT22;50669;50.982;11.022;2022-12-15T02:31:14;-4.70;99.90
28837;DHT22;50669;50.982;11.022;2022-12-15T02:34:09;-4.80;99.90
28837;DHT22;50669;50.982;11.022;2022-12-15T02:36:38;-4.90;99.90
28837;DHT22;50669;50.982;11.022;2022-12-15T02:39:07;-4.90;99.90
28837;DHT22;50669;50.982;11.022;2022-12-15T02:44:32;-5.10;99.90
28837;DHT22;50669;50.982;11.022;2022-12-15T03:01:31;-5.30;99.90
28837;DHT22;50669;50.982;11.022;2022-12-15T03:03:55;-5.40;99.90
28837;DHT22;50669;50.982;11.022;2022-12-15T03:06:27;-5.50;99.90
28837;DHT22;50669;50.982;11.022;2022-12-15T03:08:55;-5.50;99.90
28837;DHT22;50669;50.982;11.022;2022-12-15T03:11:23;-5.60;99.90
28837;DHT22;50669;50.982;11.022;2022-12-15T03:13:55;-5.60;99.90
28837;DHT22;50669;50.982;11.022;2022-12-15T03:16:20;-5.60;99.90
28837;DHT22;50669;50.982;11.022;2022-12-15T03:18:46;-5.70;99.90
28837;DHT22;50669;50.982;11.022;2022-12-15T03:21:12;-5.70;99.90
28837;DHT22;50669;50.982;11.022;2022-12-15T03:23:38;-5.80;99.90
28837;DHT22;50669;50.982;11.022;2022-12-15T03:26:06;-5.80;99.90
28837;DHT22;50669;50.982;11.022;2022-12-15T03:28:34;-5.80;99.90
28837;DHT22;50669;50.982;11.022;2022-12-15T03:31:02;-5.80;99.90
28837;DHT22;50669;50.982;11.022;2022-12-15T03:33:28;-5.90;99.90
28837;DHT22;50669;50.982;11.022;2022-12-15T03:35:54;-5.90;99.90
28837;DHT22;50669;50.982;11.022;2022-12-15T03:38:19;-5.80;99.90
28837;DHT22;50669;50.982;11.022;2022-12-15T03:40:45;-5.90;99.90
28837;DHT22;50669;50.982;11.022;2022-12-15T03:43:11;-5.90;99.90
28837;DHT22;50669;50.982;11.022;2022-12-15T03:45:39;-5.90;99.90
28837;DHT22;50669;50.982;11.022;2022-12-15T03:48:04;-6.00;99.90
28837;DHT22;50669;50.982;11.022;2022-12-15T03:50:33;-6.00;99.90
28837;DHT22;50669;50.982;11.022;2022-12-15T03:53:03;-6.10;99.90
28837;DHT22;50669;50.982;11.022;2022-12-15T03:55:29;-6.10;99.90
28837;DHT22;50669;50.982;11.022;2022-12-15T03:57:59;-6.10;99.90
28837;DHT22;50669;50.982;11.022;2022-12-15T04:00:25;-6.20;99.90
28837;DHT22;50669;50.982;11.022;2022-12-15T04:02:51;-6.20;99.90
28837;DHT22;50669;50.982;11.022;2022-12-15T04:05:31;-6.20;99.90
28837;DHT22;50669;50.982;11.022;2022-12-15T04:08:00;-6.20;99.90
28837;DHT22;50669;50.982;11.022;2022-12-15T04:10:32;-6.20;99.90
28837;DHT22;50669;50.982;11.022;2022-12-15T04:12:59;-6.20;99.90
28837;DHT22;50669;50.982;11.022;2022-12-15T04:15:28;-6.20;99.90
28837;DHT22;50669;50.982;11.022;2022-12-15T04:17:56;-6.10;99.90
28837;DHT22;50669;50.982;11.022;2022-12-15T04:20:22;-6.10;99.90
28837;DHT22;50669;50.982;11.022;2022-12-15T04:22:50;-6.00;99.90
28837;DHT22;50669;50.982;11.022;2022-12-15T04:25:22;-6.00;99.90
28837;DHT22;50669;50.982;11.022;2022-12-15T04:28:08;-6.00;99.90
28837;DHT22;50669;50.982;11.022;2022-12-15T04:30:58;-6.00;99.90
28837;DHT22;50669;50.982;11.022;2022-12-15T04:33:48;-6.00;99.90
28837;DHT22;50669;50.982;11.022;2022-12-15T04:36:37;-6.10;99.90
28837;DHT22;50669;50.982;11.022;2022-12-15T04:39:22;-6.10;99.90
28837;DHT22;50669;50.982;11.022;2022-12-15T04:42:07;-6.10;99.90
28837;DHT22;50669;50.982;11.022;2022-12-15T04:44:52;-6.10;99.90
28837;DHT22;50669;50.982;11.022;2022-12-15T04:47:39;-6.10;99.90
28837;DHT22;50669;50.982;11.022;2022-12-15T04:50:23;-6.10;99.90
28837;DHT22;50669;50.982;11.022;2022-12-15T04:53:16;-6.10;99.90
28837;DHT22;50669;50.982;11.022;2022-12-15T04:56:01;-6.10;99.90
28837;DHT22;50669;50.982;11.022;2022-12-15T04:58:48;-6.10;99.90
28837;DHT22;50669;50.982;11.022;2022-12-15T05:01:35;-6.10;99.90
28837;DHT22;50669;50.982;11.022;2022-12-15T05:04:19;-6.00;99.90
28837;DHT22;50669;50.982;11.022;2022-12-15T05:07:03;-6.00;99.90
28837;DHT22;50669;50.982;11.022;2022-12-15T05:09:47;-6.00;99.90
28837;DHT22;50669;50.982;11.022;2022-12-15T05:12:31;-6.10;99.90
28837;DHT22;50669;50.982;11.022;2022-12-15T05:15:15;-6.10;99.90
28837;DHT22;50669;50.982;11.022;2022-12-15T05:17:59;-6.20;99.90
28837;DHT22;50669;50.982;11.022;2022-12-15T05:20:43;-6.10;99.90
28837;DHT22;50669;50.982;11.022;2022-12-15T05:23:27;-6.10;99.90
28837;DHT22;50669;50.982;11.022;2022-12-15T05:26:11;-6.10;99.90
28837;DHT22;50669;50.982;11.022;2022-12-15T05:28:55;-6.20;99.90
28837;DHT22;50669;50.982;11.022;2022-12-15T05:31:42;-6.20;99.90
28837;DHT22;50669;50.982;11.022;2022-12-15T05:36:46;-6.20;99.90
28837;DHT22;50669;50.982;11.022;2022-12-15T05:39:14;-6.20;99.90
28837;DHT22;50669;50.982;11.022;2022-12-15T05:41:40;-6.10;99.90
28837;DHT22;50669;50.982;11.022;2022-12-15T05:44:06;-6.10;99.90
28837;DHT22;50669;50.982;11.022;2022-12-15T05:46:31;-6.10;99.90
28837;DHT22;50669;50.982;11.022;2022-12-15T05:48:57;-6.10;99.90
28837;DHT22;50669;50.982;11.022;2022-12-15T05:51:22;-6.10;99.90
28837;DHT22;50669;50.982;11.022;2022-12-15T05:53:48;-6.10;99.90
28837;DHT22;50669;50.982;11.022;2022-12-15T05:56:16;-6.10;99.90
28837;DHT22;50669;50.982;11.022;2022-12-15T05:58:42;-6.10;99.90
28837;DHT22;50669;50.982;11.022;2022-12-15T06:01:10;-6.00;99.90
28837;DHT22;50669;50.982;11.022;2022-12-15T06:03:42;-6.00;99.90
28837;DHT22;50669;50.982;11.022;2022-12-15T06:06:11;-6.00;99.90
28837;DHT22;50669;50.982;11.022;2022-12-15T06:08:39;-6.00;99.90
28837;DHT22;50669;50.982;11.022;2022-12-15T06:11:05;-5.90;99.90
28837;DHT22;50669;50.982;11.022;2022-12-15T06:13:33;-6.00;99.90
28837;DHT22;50669;50.982;11.022;2022-12-15T06:16:01;-6.00;99.90
28837;DHT22;50669;50.982;11.022;2022-12-15T06:18:32;-6.00;99.90
28837;DHT22;50669;50.982;11.022;2022-12-15T06:21:07;-5.90;99.90
28837;DHT22;50669;50.982;11.022;2022-12-15T06:23:33;-6.00;99.90
28837;DHT22;50669;50.982;11.022;2022-12-15T06:26:14;-6.10;99.90
28837;DHT22;50669;50.982;11.022;2022-12-15T06:28:42;-6.10;99.90
28837;DHT22;50669;50.982;11.022;2022-12-15T06:31:09;-6.10;99.90
28837;DHT22;50669;50.982;11.022;2022-12-15T06:33:38;-6.20;99.90
28837;DHT22;50669;50.982;11.022;2022-12-15T06:36:07;-6.20;99.90
28837;DHT22;50669;50.982;11.022;2022-12-15T06:38:36;-6.20;99.90
28837;DHT22;50669;50.982;11.022;2022-12-15T06:41:04;-6.20;99.90
28837;DHT22;50669;50.982;11.022;2022-12-15T06:43:31;-6.20;99.90
28837;DHT22;50669;50.982;11.022;2022-12-15T06:46:00;-6.20;99.90
28837;DHT22;50669;50.982;11.022;2022-12-15T06:48:28;-6.10;99.90
28837;DHT22;50669;50.982;11.022;2022-12-15T06:50:55;-6.10;99.90
28837;DHT22;50669;50.982;11.022;2022-12-15T06:53:23;-6.10;99.90
28837;DHT22;50669;50.982;11.022;2022-12-15T06:55:49;-6.20;99.90
28837;DHT22;50669;50.982;11.022;2022-12-15T06:58:18;-6.20;99.90
28837;DHT22;50669;50.982;11.022;2022-12-15T07:00:46;-6.30;99.90
28837;DHT22;50669;50.982;11.022;2022-12-15T07:03:14;-6.30;99.90
28837;DHT22;50669;50.982;11.022;2022-12-15T07:05:40;-6.40;99.90
28837;DHT22;50669;50.982;11.022;2022-12-15T07:08:07;-6.40;99.90
28837;DHT22;50669;50.982;11.022;2022-12-15T07:10:39;-6.40;99.90
28837;DHT22;50669;50.982;11.022;2022-12-15T07:13:06;-6.40;99.90
28837;DHT22;50669;50.982;11.022;2022-12-15T07:15:32;-6.40;99.90
28837;DHT22;50669;50.982;11.022;2022-12-15T07:18:00;-6.40;99.90
28837;DHT22;50669;50.982;11.022;2022-12-15T07:20:28;-6.40;99.90
28837;DHT22;50669;50.982;11.022;2022-12-15T07:22:54;-6.50;99.90
28837;DHT22;50669;50.982;11.022;2022-12-15T07:25:20;-6.50;99.90
28837;DHT22;50669;50.982;11.022;2022-12-15T07:27:50;-6.60;99.90
28837;DHT22;50669;50.982;11.022;2022-12-15T07:30:16;-6.60;99.90
28837;DHT22;50669;50.982;11.022;2022-12-15T07:32:42;-6.50;99.90
28837;DHT22;50669;50.982;11.022;2022-12-15T07:35:09;-6.50;99.90
28837;DHT22;50669;50.982;11.022;2022-12-15T07:37:35;-6.50;99.90
28837;DHT22;50669;50.982;11.022;2022-12-15T07:40:04;-6.60;99.90
28837;DHT22;50669;50.982;11.022;2022-12-15T07:42:30;-6.60;99.90
28837;DHT22;50669;50.982;11.022;2022-12-15T07:44:56;-6.50;99.90
28837;DHT22;50669;50.982;11.022;2022-12-15T07:47:22;-6.50;99.90
28837;DHT22;50669;50.982;11.022;2022-12-15T07:49:51;-6.50;99.90
28837;DHT22;50669;50.982;11.022;2022-12-15T07:52:16;-6.40;99.90
28837;DHT22;50669;50.982;11.022;2022-12-15T07:54:44;-6.40;99.90
28837;DHT22;50669;50.982;11.022;2022-12-15T07:57:13;-6.40;99.90
28837;DHT22;50669;50.982;11.022;2022-12-15T07:59:41;-6.40;99.90
28837;DHT22;50669;50.982;11.022;2022-12-15T08:02:09;-6.40;99.90
28837;DHT22;50669;50.982;11.022;2022-12-15T08:04:36;-6.40;99.90
28837;DHT22;50669;50.982;11.022;2022-12-15T08:07:02;-6.40;99.90
28837;DHT22;50669;50.982;11.022;2022-12-15T08:09:28;-6.40;99.90
28837;DHT22;50669;50.982;11.022;2022-12-15T08:11:56;-6.40;99.90
28837;DHT22;50669;50.982;11.022;2022-12-15T08:14:21;-6.40;99.90
28837;DHT22;50669;50.982;11.022;2022-12-15T08:16:47;-6.30;99.90
28837;DHT22;50669;50.982;11.022;2022-12-15T08:19:14;-6.30;99.90
28837;DHT22;50669;50.982;11.022;2022-12-15T08:21:44;-6.20;99.90
28837;DHT22;50669;50.982;11.022;2022-12-15T08:24:13;-6.20;99.90
28837;DHT22;50669;50.982;11.022;2022-12-15T08:26:40;-6.10;99.90
28837;DHT22;50669;50.982;11.022;2022-12-15T08:29:11;-6.10;99.90
28837;DHT22;50669;50.982;11.022;2022-12-15T08:31:37;-6.00;99.90
28837;DHT22;50669;50.982;11.022;2022-12-15T08:34:06;-5.90;99.90
28837;DHT22;50669;50.982;11.022;2022-12-15T08:36:32;-5.80;99.90
28837;DHT22;50669;50.982;11.022;2022-12-15T08:38:59;-5.80;99.90
28837;DHT22;50669;50.982;11.022;2022-12-15T08:41:27;-5.80;99.90
28837;DHT22;50669;50.982;11.022;2022-12-15T08:43:54;-5.80;99.90
28837;DHT22;50669;50.982;11.022;2022-12-15T08:46:26;-5.70;99.90
28837;DHT22;50669;50.982;11.022;2022-12-15T08:48:52;-5.60;99.90
28837;DHT22;50669;50.982;11.022;2022-12-15T08:51:21;-5.60;99.90
28837;DHT22;50669;50.982;11.022;2022-12-15T08:53:47;-5.60;99.90
28837;DHT22;50669;50.982;11.022;2022-12-15T08:56:15;-5.50;99.90
28837;DHT22;50669;50.982;11.022;2022-12-15T08:58:46;-5.50;99.90
28837;DHT22;50669;50.982;11.022;2022-12-15T09:01:16;-5.60;99.90
28837;DHT22;50669;50.982;11.022;2022-12-15T09:03:42;-5.60;99.90
28837;DHT22;50669;50.982;11.022;2022-12-15T09:06:25;-5.60;99.90
28837;DHT22;50669;50.982;11.022;2022-12-15T09:08:59;-5.60;99.90
28837;DHT22;50669;50.982;11.022;2022-12-15T09:11:26;-5.60;99.90
28837;DHT22;50669;50.982;11.022;2022-12-15T09:13:52;-5.60;99.90
28837;DHT22;50669;50.982;11.022;2022-12-15T09:16:18;-5.60;99.90
28837;DHT22;50669;50.982;11.022;2022-12-15T09:18:52;-5.50;99.90
28837;DHT22;50669;50.982;11.022;2022-12-15T09:21:20;-5.50;99.90
28837;DHT22;50669;50.982;11.022;2022-12-15T09:23:52;-5.60;99.90
28837;DHT22;50669;50.982;11.022;2022-12-15T09:26:20;-5.70;99.90
28837;DHT22;50669;50.982;11.022;2022-12-15T09:28:46;-5.80;99.90
28837;DHT22;50669;50.982;11.022;2022-12-15T09:31:20;-5.80;99.90
28837;DHT22;50669;50.982;11.022;2022-12-15T09:33:47;-5.70;99.90
28837;DHT22;50669;50.982;11.022;2022-12-15T09:36:13;-5.60;99.90
28837;DHT22;50669;50.982;11.022;2022-12-15T09:38:40;-5.50;99.90
28837;DHT22;50669;50.982;11.022;2022-12-15T09:41:08;-5.50;99.90
28837;DHT22;50669;50.982;11.022;2022-12-15T09:43:44;-5.40;99.90
28837;DHT22;50669;50.982;11.022;2022-12-15T09:48:52;-5.30;99.90
28837;DHT22;50669;50.982;11.022;2022-12-15T09:51:19;-5.30;99.90
28837;DHT22;50669;50.982;11.022;2022-12-15T09:53:53;-5.20;99.90
28837;DHT22;50669;50.982;11.022;2022-12-15T09:56:25;-5.20;99.90
28837;DHT22;50669;50.982;11.022;2022-12-15T10:04:17;-3.40;99.90
28837;DHT22;50669;50.982;11.022;2022-12-15T10:07:28;-2.10;99.90
28837;DHT22;50669;50.982;11.022;2022-12-15T10:12:50;-1.80;99.90
28837;DHT22;50669;50.982;11.022;2022-12-15T10:15:28;-2.10;99.90
28837;DHT22;50669;50.982;11.022;2022-12-15T10:18:05;-1.90;99.90
28837;DHT22;50669;50.982;11.022;2022-12-15T10:20:34;-1.10;99.90
28837;DHT22;50669;50.982;11.022;2022-12-15T10:23:12;0.30;99.90
28837;DHT22;50669;50.982;11.022;2022-12-15T10:25:38;1.20;99.90
28837;DHT22;50669;50.982;11.022;2022-12-15T10:30:50;1.70;99.90
28837;DHT22;50669;50.982;11.022;2022-12-15T10:33:17;1.40;99.90
28837;DHT22;50669;50.982;11.022;2022-12-15T10:35:44;1.30;99.90
28837;DHT22;50669;50.982;11.022;2022-12-15T10:38:34;1.30;99.90
28837;DHT22;50669;50.982;11.022;2022-12-15T10:41:05;1.60;99.90
28837;DHT22;50669;50.982;11.022;2022-12-15T10:48:50;2.10;99.90
28837;DHT22;50669;50.982;11.022;2022-12-15T10:51:34;3.20;99.90
28837;DHT22;50669;50.982;11.022;2022-12-15T10:59:28;5.30;99.90
28837;DHT22;50669;50.982;11.022;2022-12-15T11:05:00;3.10;99.90
28837;DHT22;50669;50.982;11.022;2022-12-15T11:07:38;1.60;99.90
28837;DHT22;50669;50.982;11.022;2022-12-15T11:18:31;3.30;99.90
28837;DHT22;50669;50.982;11.022;2022-12-15T11:21:21;4.20;99.90
28837;DHT22;50669;50.982;11.022;2022-12-15T11:24:08;4.50;99.90
28837;DHT22;50669;50.982;11.022;2022-12-15T11:26:58;4.00;99.90
28837;DHT22;50669;50.982;11.022;2022-12-15T11:32:13;4.10;99.90
28837;DHT22;50669;50.982;11.022;2022-12-15T11:34:46;3.70;99.90
28837;DHT22;50669;50.982;11.022;2022-12-15T11:42:50;2.10;99.90
28837;DHT22;50669;50.982;11.022;2022-12-15T11:48:21;1.50;99.90
28837;DHT22;50669;50.982;11.022;2022-12-15T11:50:59;1.10;99.90
28837;DHT22;50669;50.982;11.022;2022-12-15T11:59:14;0.40;99.90
28837;DHT22;50669;50.982;11.022;2022-12-15T12:07:44;0.00;99.90
28837;DHT22;50669;50.982;11.022;2022-12-15T12:10:18;-0.20;99.90
28837;DHT22;50669;50.982;11.022;2022-12-15T12:13:50;-0.30;99.90
28837;DHT22;50669;50.982;11.022;2022-12-15T12:16:14;-0.50;99.90
28837;DHT22;50669;50.982;11.022;2022-12-15T12:18:51;-0.60;99.90
28837;DHT22;50669;50.982;11.022;2022-12-15T12:21:25;-0.60;99.90
28837;DHT22;50669;50.982;11.022;2022-12-15T12:27:01;-0.70;99.90
28837;DHT22;50669;50.982;11.022;2022-12-15T12:29:45;-0.70;99.90
28837;DHT22;50669;50.982;11.022;2022-12-15T12:35:11;-0.80;99.90
28837;DHT22;50669;50.982;11.022;2022-12-15T12:38:03;-0.80;99.90
28837;DHT22;50669;50.982;11.022;2022-12-15T12:43:11;-0.90;99.90
28837;DHT22;50669;50.982;11.022;2022-12-15T12:45:56;-0.80;99.90
28837;DHT22;50669;50.982;11.022;2022-12-15T12:53:44;-0.90;99.90
28837;DHT22;50669;50.982;11.022;2022-12-15T12:56:41;-0.90;99.90
28837;DHT22;50669;50.982;11.022;2022-12-15T13:04:42;-0.90;99.90
28837;DHT22;50669;50.982;11.022;2022-12-15T13:07:32;-0.80;99.90
28837;DHT22;50669;50.982;11.022;2022-12-15T13:15:13;-0.70;99.90
28837;DHT22;50669;50.982;11.022;2022-12-15T13:17:50;-0.70;99.90
28837;DHT22;50669;50.982;11.022;2022-12-15T13:20:22;-0.70;99.90
28837;DHT22;50669;50.982;11.022;2022-12-15T13:22:49;-0.70;99.90
28837;DHT22;50669;50.982;11.022;2022-12-15T13:25:45;-0.70;99.90
28837;DHT22;50669;50.982;11.022;2022-12-15T13:44:43;-1.10;99.90
28837;DHT22;50669;50.982;11.022;2022-12-15T13:50:06;-1.10;99.90
28837;DHT22;50669;50.982;11.022;2022-12-15T13:52:54;-1.00;99.90
28837;DHT22;50669;50.982;11.022;2022-12-15T13:55:25;-0.90;99.90
28837;DHT22;50669;50.982;11.022;2022-12-15T14:00:28;-0.90;99.90
28837;DHT22;50669;50.982;11.022;2022-12-15T14:03:14;-0.90;99.90
28837;DHT22;50669;50.982;11.022;2022-12-15T14:05:47;-0.90;99.90
28837;DHT22;50669;50.982;11.022;2022-12-15T14:08:17;-0.90;99.90
28837;DHT22;50669;50.982;11.022;2022-12-15T14:11:01;-1.00;99.90
28837;DHT22;50669;50.982;11.022;2022-12-15T14:13:28;-1.10;99.90
28837;DHT22;50669;50.982;11.022;2022-12-15T14:18:41;-1.30;99.90
28837;DHT22;50669;50.982;11.022;2022-12-15T14:21:20;-1.30;99.90
28837;DHT22;50669;50.982;11.022;2022-12-15T14:23:48;-1.20;99.90
28837;DHT22;50669;50.982;11.022;2022-12-15T14:26:17;-1.20;99.90
28837;DHT22;50669;50.982;11.022;2022-12-15T14:28:45;-1.20;99.90
28837;DHT22;50669;50.982;11.022;2022-12-15T14:33:42;-1.30;99.90
28837;DHT22;50669;50.982;11.022;2022-12-15T14:36:11;-1.40;99.90
28837;DHT22;50669;50.982;11.022;2022-12-15T14:38:44;-1.40;99.90
28837;DHT22;50669;50.982;11.022;2022-12-15T14:41:32;-1.50;99.90
28837;DHT22;50669;50.982;11.022;2022-12-15T14:44:10;-1.40;99.90
28837;DHT22;50669;50.982;11.022;2022-12-15T14:46:45;-1.50;99.90
28837;DHT22;50669;50.982;11.022;2022-12-15T14:49:21;-1.50;99.90
28837;DHT22;50669;50.982;11.022;2022-12-15T14:51:51;-1.60;99.90
28837;DHT22;50669;50.982;11.022;2022-12-15T14:54:31;-1.60;99.90
28837;DHT22;50669;50.982;11.022;2022-12-15T14:57:21;-1.70;99.90
28837;DHT22;50669;50.982;11.022;2022-12-15T14:59:50;-1.60;99.90
28837;DHT22;50669;50.982;11.022;2022-12-15T15:02:27;-1.70;99.90
28837;DHT22;50669;50.982;11.022;2022-12-15T15:07:24;-1.80;99.90
28837;DHT22;50669;50.982;11.022;2022-12-15T15:09:51;-1.80;99.90
28837;DHT22;50669;50.982;11.022;2022-12-15T15:12:19;-1.80;99.90
28837;DHT22;50669;50.982;11.022;2022-12-15T15:20:03;-2.00;99.90
28837;DHT22;50669;50.982;11.022;2022-12-15T15:28:23;-2.00;99.90
28837;DHT22;50669;50.982;11.022;2022-12-15T15:30:57;-2.00;99.90
28837;DHT22;50669;50.982;11.022;2022-12-15T15:33:30;-2.10;99.90
28837;DHT22;50669;50.982;11.022;2022-12-15T15:36:01;-2.10;99.90
28837;DHT22;50669;50.982;11.022;2022-12-15T15:38:37;-2.20;99.90
28837;DHT22;50669;50.982;11.022;2022-12-15T15:41:21;-2.20;99.90
28837;DHT22;50669;50.982;11.022;2022-12-15T15:43:50;-2.20;99.90
28837;DHT22;50669;50.982;11.022;2022-12-15T15:46:23;-2.30;99.90
28837;DHT22;50669;50.982;11.022;2022-12-15T15:48:58;-2.40;99.90
28837;DHT22;50669;50.982;11.022;2022-12-15T15:51:26;-2.50;99.90
28837;DHT22;50669;50.982;11.022;2022-12-15T15:53:56;-2.50;99.90
28837;DHT22;50669;50.982;11.022;2022-12-15T15:56:23;-2.50;99.90
28837;DHT22;50669;50.982;11.022;2022-12-15T15:58:52;-2.50;99.90
28837;DHT22;50669;50.982;11.022;2022-12-15T16:01:20;-2.50;99.90
28837;DHT22;50669;50.982;11.022;2022-12-15T16:03:46;-2.50;99.90
28837;DHT22;50669;50.982;11.022;2022-12-15T16:06:21;-2.50;99.90
28837;DHT22;50669;50.982;11.022;2022-12-15T16:08:51;-2.60;99.90
28837;DHT22;50669;50.982;11.022;2022-12-15T16:11:24;-2.60;99.90
28837;DHT22;50669;50.982;11.022;2022-12-15T16:13:51;-2.60;99.90
28837;DHT22;50669;50.982;11.022;2022-12-15T16:16:25;-2.60;99.90
28837;DHT22;50669;50.982;11.022;2022-12-15T16:18:52;-2.60;99.90
28837;DHT22;50669;50.982;11.022;2022-12-15T16:21:19;-2.70;99.90
28837;DHT22;50669;50.982;11.022;2022-12-15T16:23:47;-2.80;99.90
28837;DHT22;50669;50.982;11.022;2022-12-15T16:26:23;-2.70;99.90
28837;DHT22;50669;50.982;11.022;2022-12-15T16:28:52;-2.80;99.90
28837;DHT22;50669;50.982;11.022;2022-12-15T16:31:32;-2.70;99.90
28837;DHT22;50669;50.982;11.022;2022-12-15T16:34:01;-2.70;99.90
28837;DHT22;50669;50.982;11.022;2022-12-15T16:36:27;-2.80;99.90
28837;DHT22;50669;50.982;11.022;2022-12-15T16:38:53;-2.80;99.90
28837;DHT22;50669;50.982;11.022;2022-12-15T16:41:18;-2.80;99.90
28837;DHT22;50669;50.982;11.022;2022-12-15T16:43:48;-2.90;99.90
28837;DHT22;50669;50.982;11.022;2022-12-15T16:46:14;-2.90;99.90
28837;DHT22;50669;50.982;11.022;2022-12-15T16:48:40;-2.90;99.90
28837;DHT22;50669;50.982;11.022;2022-12-15T16:51:08;-2.90;99.90
28837;DHT22;50669;50.982;11.022;2022-12-15T16:53:40;-3.00;99.90
28837;DHT22;50669;50.982;11.022;2022-12-15T16:56:11;-3.00;99.90
28837;DHT22;50669;50.982;11.022;2022-12-15T16:58:37;-3.00;99.90
28837;DHT22;50669;50.982;11.022;2022-12-15T17:01:05;-3.10;99.90
28837;DHT22;50669;50.982;11.022;2022-12-15T17:03:31;-3.10;99.90
28837;DHT22;50669;50.982;11.022;2022-12-15T17:06:00;-3.20;99.90
28837;DHT22;50669;50.982;11.022;2022-12-15T17:10:54;-3.30;99.90
28837;DHT22;50669;50.982;11.022;2022-12-15T17:13:37;-3.30;99.90
28837;DHT22;50669;50.982;11.022;2022-12-15T17:16:03;-3.40;99.90
28837;DHT22;50669;50.982;11.022;2022-12-15T17:18:30;-3.40;99.90
28837;DHT22;50669;50.982;11.022;2022-12-15T17:21:28;-3.40;99.90
28837;DHT22;50669;50.982;11.022;2022-12-15T17:24:03;-3.50;99.90
28837;DHT22;50669;50.982;11.022;2022-12-15T17:26:33;-3.50;99.90
28837;DHT22;50669;50.982;11.022;2022-12-15T17:29:04;-3.50;99.90
28837;DHT22;50669;50.982;11.022;2022-12-15T17:31:30;-3.60;99.90
28837;DHT22;50669;50.982;11.022;2022-12-15T17:33:56;-3.60;99.90
28837;DHT22;50669;50.982;11.022;2022-12-15T17:36:24;-3.70;99.90
28837;DHT22;50669;50.982;11.022;2022-12-15T17:38:57;-3.70;99.90
28837;DHT22;50669;50.982;11.022;2022-12-15T17:41:25;-3.70;99.90
28837;DHT22;50669;50.982;11.022;2022-12-15T17:43:51;-3.80;99.90
28837;DHT22;50669;50.982;11.022;2022-12-15T17:46:19;-3.80;99.90
28837;DHT22;50669;50.982;11.022;2022-12-15T17:48:46;-3.90;99.90
28837;DHT22;50669;50.982;11.022;2022-12-15T17:51:17;-3.90;99.90
28837;DHT22;50669;50.982;11.022;2022-12-15T17:53:47;-3.90;99.90
28837;DHT22;50669;50.982;11.022;2022-12-15T17:56:16;-3.90;99.90
28837;DHT22;50669;50.982;11.022;2022-12-15T17:58:42;-4.00;99.90
28837;DHT22;50669;50.982;11.022;2022-12-15T18:01:11;-3.90;99.90
28837;DHT22;50669;50.982;11.022;2022-12-15T18:03:39;-3.90;99.90
28837;DHT22;50669;50.982;11.022;2022-12-15T18:06:10;-3.90;99.90
28837;DHT22;50669;50.982;11.022;2022-12-15T18:08:38;-3.90;99.90
28837;DHT22;50669;50.982;11.022;2022-12-15T18:11:04;-3.80;99.90
28837;DHT22;50669;50.982;11.022;2022-12-15T18:13:31;-3.90;99.90
28837;DHT22;50669;50.982;11.022;2022-12-15T18:15:57;-4.00;99.90
28837;DHT22;50669;50.982;11.022;2022-12-15T18:18:28;-4.00;99.90
28837;DHT22;50669;50.982;11.022;2022-12-15T18:20:57;-4.00;99.90
28837;DHT22;50669;50.982;11.022;2022-12-15T18:23:28;-4.00;99.90
28837;DHT22;50669;50.982;11.022;2022-12-15T18:25:57;-4.10;99.90
28837;DHT22;50669;50.982;11.022;2022-12-15T18:28:26;-4.20;99.90
28837;DHT22;50669;50.982;11.022;2022-12-15T18:30:54;-4.20;99.90
28837;DHT22;50669;50.982;11.022;2022-12-15T18:33:23;-4.30;99.90
28837;DHT22;50669;50.982;11.022;2022-12-15T18:35:50;-4.40;99.90
28837;DHT22;50669;50.982;11.022;2022-12-15T18:40:46;-4.30;99.90
28837;DHT22;50669;50.982;11.022;2022-12-15T18:43:19;-4.30;99.90
28837;DHT22;50669;50.982;11.022;2022-12-15T18:45:45;-4.20;99.90